sensor_id;sensor_type;location;lat;lon;timestamp;P1;durP1;ratioP1;P2;durP2;ratioP2
65387;SDS011;51992;53.528;49.474;2022-10-31T05:35:29;6.15;;;3.92;;
65387;SDS011;51992;53.528;49.474;2022-10-31T05:37:56;3.72;;;2.40;;
65387;SDS011;51992;53.528;49.474;2022-10-31T05:40:23;4.47;;;2.95;;
65387;SDS011;51992;53.528;49.474;2022-10-31T05:42:53;4.32;;;2.38;;
65387;SDS011;51992;53.528;49.474;2022-10-31T05:45:19;3.58;;;1.70;;
65387;SDS011;51992;53.528;49.474;2022-10-31T05:47:53;7.57;;;2.85;;
65387;SDS011;51992;53.528;49.474;2022-10-31T05:50:19;3.45;;;1.70;;
65387;SDS011;51992;53.528;49.474;2022-10-31T05:52:46;4.88;;;2.83;;
65387;SDS011;51992;53.528;49.474;2022-10-31T05:55:11;10.02;;;4.30;;
65387;SDS011;51992;53.528;49.474;2022-10-31T05:57:37;16.52;;;6.22;;
65387;SDS011;51992;53.528;49.474;2022-10-31T06:00:03;9.23;;;4.18;;
65387;SDS011;51992;53.528;49.474;2022-10-31T06:02:29;31.13;;;12.98;;
65387;SDS011;51992;53.528;49.474;2022-10-31T06:05:00;18.83;;;7.07;;
65387;SDS011;51992;53.528;49.474;2022-10-31T06:07:26;11.55;;;5.80;;
65387;SDS011;51992;53.528;49.474;2022-10-31T06:09:52;19.35;;;9.52;;
65387;SDS011;51992;53.528;49.474;2022-10-31T06:12:17;5.68;;;3.45;;
65387;SDS011;51992;53.528;49.474;2022-10-31T06:14:43;11.38;;;7.03;;
65387;SDS011;51992;53.528;49.474;2022-10-31T06:17:09;7.53;;;5.32;;
65387;SDS011;51992;53.528;49.474;2022-10-31T06:19:35;14.45;;;8.25;;
65387;SDS011;51992;53.528;49.474;2022-10-31T06:22:00;3.50;;;2.88;;
65387;SDS011;51992;53.528;49.474;2022-10-31T06:24:26;2.85;;;2.05;;
65387;SDS011;51992;53.528;49.474;2022-10-31T06:26:52;9.77;;;6.20;;
65387;SDS011;51992;53.528;49.474;2022-10-31T06:29:18;6.93;;;5.22;;
65387;SDS011;51992;53.528;49.474;2022-10-31T06:31:43;4.97;;;3.50;;
65387;SDS011;51992;53.528;49.474;2022-10-31T06:34:09;2.28;;;1.75;;
65387;SDS011;51992;53.528;49.474;2022-10-31T06:36:35;10.90;;;4.38;;
65387;SDS011;51992;53.528;49.474;2022-10-31T06:39:01;14.18;;;6.95;;
65387;SDS011;51992;53.528;49.474;2022-10-31T06:41:26;18.33;;;7.10;;
65387;SDS011;51992;53.528;49.474;2022-10-31T06:43:52;3.78;;;2.58;;
65387;SDS011;51992;53.528;49.474;2022-10-31T06:46:18;2.83;;;1.80;;
65387;SDS011;51992;53.528;49.474;2022-10-31T06:48:44;2.17;;;1.30;;
65387;SDS011;51992;53.528;49.474;2022-10-31T06:51:09;1.65;;;1.10;;
65387;SDS011;51992;53.528;49.474;2022-10-31T06:53:35;2.33;;;0.90;;
65387;SDS011;51992;53.528;49.474;2022-10-31T06:56:01;3.88;;;1.20;;
65387;SDS011;51992;53.528;49.474;2022-10-31T06:58:27;2.67;;;1.75;;
65387;SDS011;51992;53.528;49.474;2022-10-31T07:00:52;4.45;;;2.70;;
65387;SDS011;51992;53.528;49.474;2022-10-31T07:03:18;4.63;;;2.70;;
65387;SDS011;51992;53.528;49.474;2022-10-31T07:05:45;2.53;;;1.52;;
65387;SDS011;51992;53.528;49.474;2022-10-31T07:08:11;2.80;;;1.98;;
65387;SDS011;51992;53.528;49.474;2022-10-31T07:10:38;5.80;;;3.15;;
65387;SDS011;51992;53.528;49.474;2022-10-31T07:13:05;5.05;;;2.90;;
65387;SDS011;51992;53.528;49.474;2022-10-31T07:15:35;8.50;;;6.55;;
65387;SDS011;51992;53.528;49.474;2022-10-31T07:18:01;3.00;;;1.85;;
65387;SDS011;51992;53.528;49.474;2022-10-31T07:20:28;10.63;;;3.60;;
65387;SDS011;51992;53.528;49.474;2022-10-31T07:22:54;5.10;;;3.45;;
65387;SDS011;51992;53.528;49.474;2022-10-31T07:25:20;1.60;;;1.50;;
65387;SDS011;51992;53.528;49.474;2022-10-31T07:27:45;3.45;;;3.05;;
65387;SDS011;51992;53.528;49.474;2022-10-31T07:30:12;5.50;;;2.63;;
65387;SDS011;51992;53.528;49.474;2022-10-31T07:35:04;4.70;;;2.83;;
65387;SDS011;51992;53.528;49.474;2022-10-31T07:37:30;11.70;;;4.90;;
65387;SDS011;51992;53.528;49.474;2022-10-31T07:39:56;1.92;;;1.10;;
65387;SDS011;51992;53.528;49.474;2022-10-31T07:42:22;1.42;;;1.33;;
65387;SDS011;51992;53.528;49.474;2022-10-31T07:44:47;11.65;;;4.35;;
65387;SDS011;51992;53.528;49.474;2022-10-31T07:47:13;4.80;;;2.70;;
65387;SDS011;51992;53.528;49.474;2022-10-31T07:49:39;5.63;;;2.67;;
65387;SDS011;51992;53.528;49.474;2022-10-31T07:52:05;5.43;;;3.33;;
65387;SDS011;51992;53.528;49.474;2022-10-31T07:54:31;4.63;;;2.38;;
65387;SDS011;51992;53.528;49.474;2022-10-31T07:56:56;6.43;;;2.80;;
65387;SDS011;51992;53.528;49.474;2022-10-31T07:59:23;10.65;;;4.35;;
65387;SDS011;51992;53.528;49.474;2022-10-31T08:01:53;5.20;;;3.55;;
65387;SDS011;51992;53.528;49.474;2022-10-31T08:04:18;5.28;;;2.38;;
65387;SDS011;51992;53.528;49.474;2022-10-31T08:06:44;2.35;;;1.90;;
65387;SDS011;51992;53.528;49.474;2022-10-31T08:09:10;2.35;;;1.80;;
65387;SDS011;51992;53.528;49.474;2022-10-31T08:11:36;1.58;;;1.27;;
65387;SDS011;51992;53.528;49.474;2022-10-31T08:14:02;7.18;;;1.67;;
65387;SDS011;51992;53.528;49.474;2022-10-31T08:16:27;5.50;;;1.70;;
65387;SDS011;51992;53.528;49.474;2022-10-31T08:18:53;4.35;;;1.85;;
65387;SDS011;51992;53.528;49.474;2022-10-31T08:21:21;1.95;;;1.35;;
65387;SDS011;51992;53.528;49.474;2022-10-31T08:23:47;5.13;;;2.30;;
65387;SDS011;51992;53.528;49.474;2022-10-31T08:26:12;4.20;;;1.25;;
65387;SDS011;51992;53.528;49.474;2022-10-31T08:28:38;1.13;;;0.57;;
65387;SDS011;51992;53.528;49.474;2022-10-31T08:31:04;2.33;;;0.80;;
65387;SDS011;51992;53.528;49.474;2022-10-31T08:33:31;3.10;;;0.95;;
65387;SDS011;51992;53.528;49.474;2022-10-31T08:36:00;5.97;;;3.13;;
65387;SDS011;51992;53.528;49.474;2022-10-31T08:38:26;1.38;;;1.17;;
65387;SDS011;51992;53.528;49.474;2022-10-31T08:40:53;1.40;;;0.80;;
65387;SDS011;51992;53.528;49.474;2022-10-31T08:43:19;2.47;;;1.02;;
65387;SDS011;51992;53.528;49.474;2022-10-31T08:45:47;1.35;;;1.25;;
65387;SDS011;51992;53.528;49.474;2022-10-31T08:48:13;2.28;;;1.02;;
65387;SDS011;51992;53.528;49.474;2022-10-31T08:50:39;1.83;;;1.27;;
65387;SDS011;51992;53.528;49.474;2022-10-31T08:53:13;2.25;;;1.30;;
65387;SDS011;51992;53.528;49.474;2022-10-31T08:55:40;2.10;;;1.15;;
65387;SDS011;51992;53.528;49.474;2022-10-31T08:58:07;1.20;;;1.10;;
65387;SDS011;51992;53.528;49.474;2022-10-31T09:00:33;3.65;;;1.60;;
65387;SDS011;51992;53.528;49.474;2022-10-31T09:03:00;2.70;;;1.42;;
65387;SDS011;51992;53.528;49.474;2022-10-31T09:05:26;3.40;;;1.75;;
65387;SDS011;51992;53.528;49.474;2022-10-31T09:07:56;3.90;;;2.28;;
65387;SDS011;51992;53.528;49.474;2022-10-31T09:10:22;3.70;;;2.58;;
65387;SDS011;51992;53.528;49.474;2022-10-31T09:12:54;11.65;;;3.67;;
65387;SDS011;51992;53.528;49.474;2022-10-31T09:15:20;3.08;;;2.67;;
65387;SDS011;51992;53.528;49.474;2022-10-31T09:17:46;1.92;;;1.30;;
65387;SDS011;51992;53.528;49.474;2022-10-31T09:20:13;6.45;;;4.00;;
65387;SDS011;51992;53.528;49.474;2022-10-31T09:22:38;7.88;;;4.85;;
65387;SDS011;51992;53.528;49.474;2022-10-31T09:25:04;5.75;;;2.75;;
65387;SDS011;51992;53.528;49.474;2022-10-31T09:27:30;3.97;;;2.75;;
65387;SDS011;51992;53.528;49.474;2022-10-31T09:29:56;2.70;;;1.40;;
65387;SDS011;51992;53.528;49.474;2022-10-31T09:32:21;1.25;;;1.08;;
65387;SDS011;51992;53.528;49.474;2022-10-31T09:34:47;2.70;;;1.30;;
65387;SDS011;51992;53.528;49.474;2022-10-31T09:37:13;1.48;;;0.90;;
65387;SDS011;51992;53.528;49.474;2022-10-31T09:39:39;2.10;;;1.30;;
65387;SDS011;51992;53.528;49.474;2022-10-31T09:54:47;2.00;;;1.30;;
65387;SDS011;51992;53.528;49.474;2022-10-31T09:57:15;2.58;;;2.05;;
65387;SDS011;51992;53.528;49.474;2022-10-31T09:59:41;2.45;;;1.70;;
65387;SDS011;51992;53.528;49.474;2022-10-31T10:07:07;2.33;;;2.00;;
65387;SDS011;51992;53.528;49.474;2022-10-31T10:09:35;3.13;;;1.95;;
65387;SDS011;51992;53.528;49.474;2022-10-31T10:12:28;1.77;;;1.00;;
65387;SDS011;51992;53.528;49.474;2022-10-31T10:27:37;2.95;;;1.10;;
65387;SDS011;51992;53.528;49.474;2022-10-31T10:30:15;1.65;;;0.90;;
65387;SDS011;51992;53.528;49.474;2022-10-31T10:32:43;3.50;;;1.60;;
65387;SDS011;51992;53.528;49.474;2022-10-31T10:37:39;1.50;;;1.40;;
65387;SDS011;51992;53.528;49.474;2022-10-31T10:48:40;5.38;;;2.85;;
65387;SDS011;51992;53.528;49.474;2022-10-31T10:51:07;5.20;;;2.75;;
65387;SDS011;51992;53.528;49.474;2022-10-31T10:59:10;5.70;;;2.85;;
65387;SDS011;51992;53.528;49.474;2022-10-31T11:01:36;2.90;;;1.80;;
65387;SDS011;51992;53.528;49.474;2022-10-31T11:04:03;2.80;;;2.22;;
65387;SDS011;51992;53.528;49.474;2022-10-31T11:06:30;4.30;;;2.05;;
65387;SDS011;51992;53.528;49.474;2022-10-31T11:08:56;5.32;;;3.20;;
65387;SDS011;51992;53.528;49.474;2022-10-31T11:13:48;5.20;;;3.30;;
65387;SDS011;51992;53.528;49.474;2022-10-31T11:16:37;2.90;;;2.35;;
65387;SDS011;51992;53.528;49.474;2022-10-31T11:19:35;2.60;;;1.83;;
65387;SDS011;51992;53.528;49.474;2022-10-31T11:21:53;1.88;;;1.67;;
65387;SDS011;51992;53.528;49.474;2022-10-31T11:24:20;2.85;;;1.92;;
65387;SDS011;51992;53.528;49.474;2022-10-31T11:26:48;2.58;;;1.30;;
65387;SDS011;51992;53.528;49.474;2022-10-31T11:31:43;5.50;;;1.80;;
65387;SDS011;51992;53.528;49.474;2022-10-31T11:34:26;3.72;;;1.60;;
65387;SDS011;51992;53.528;49.474;2022-10-31T11:36:53;5.88;;;2.03;;
65387;SDS011;51992;53.528;49.474;2022-10-31T11:39:22;4.30;;;1.85;;
65387;SDS011;51992;53.528;49.474;2022-10-31T11:41:49;9.75;;;2.17;;
65387;SDS011;51992;53.528;49.474;2022-10-31T11:47:21;2.20;;;1.60;;
65387;SDS011;51992;53.528;49.474;2022-10-31T11:49:49;2.00;;;1.50;;
65387;SDS011;51992;53.528;49.474;2022-10-31T11:52:19;1.27;;;1.10;;
65387;SDS011;51992;53.528;49.474;2022-10-31T11:54:47;2.00;;;1.23;;
65387;SDS011;51992;53.528;49.474;2022-10-31T11:57:24;2.67;;;1.02;;
65387;SDS011;51992;53.528;49.474;2022-10-31T11:59:51;3.13;;;1.48;;
65387;SDS011;51992;53.528;49.474;2022-10-31T12:02:17;3.35;;;2.00;;
65387;SDS011;51992;53.528;49.474;2022-10-31T12:04:44;4.63;;;2.08;;
65387;SDS011;51992;53.528;49.474;2022-10-31T12:07:12;4.30;;;2.80;;
65387;SDS011;51992;53.528;49.474;2022-10-31T12:09:38;2.63;;;2.33;;
65387;SDS011;51992;53.528;49.474;2022-10-31T12:17:22;8.82;;;2.00;;
65387;SDS011;51992;53.528;49.474;2022-10-31T12:25:12;6.18;;;2.60;;
65387;SDS011;51992;53.528;49.474;2022-10-31T12:30:21;3.83;;;1.90;;
65387;SDS011;51992;53.528;49.474;2022-10-31T12:43:33;4.20;;;2.40;;
65387;SDS011;51992;53.528;49.474;2022-10-31T12:51:01;3.13;;;1.80;;
65387;SDS011;51992;53.528;49.474;2022-10-31T12:53:36;4.53;;;3.22;;
65387;SDS011;51992;53.528;49.474;2022-10-31T12:56:11;5.13;;;2.50;;
65387;SDS011;51992;53.528;49.474;2022-10-31T12:58:40;4.43;;;2.30;;
65387;SDS011;51992;53.528;49.474;2022-10-31T13:03:46;4.22;;;2.58;;
65387;SDS011;51992;53.528;49.474;2022-10-31T13:06:19;5.13;;;2.95;;
65387;SDS011;51992;53.528;49.474;2022-10-31T13:08:49;3.47;;;2.47;;
65387;SDS011;51992;53.528;49.474;2022-10-31T13:11:16;7.57;;;2.53;;
65387;SDS011;51992;53.528;49.474;2022-10-31T13:16:35;12.05;;;3.20;;
65387;SDS011;51992;53.528;49.474;2022-10-31T13:24:13;11.98;;;4.05;;
65387;SDS011;51992;53.528;49.474;2022-10-31T13:26:43;12.35;;;3.33;;
65387;SDS011;51992;53.528;49.474;2022-10-31T13:31:40;3.55;;;2.60;;
65387;SDS011;51992;53.528;49.474;2022-10-31T13:34:18;5.57;;;2.08;;
65387;SDS011;51992;53.528;49.474;2022-10-31T13:36:49;3.83;;;2.30;;
65387;SDS011;51992;53.528;49.474;2022-10-31T13:44:22;3.92;;;1.95;;
65387;SDS011;51992;53.528;49.474;2022-10-31T13:46:54;5.50;;;1.63;;
65387;SDS011;51992;53.528;49.474;2022-10-31T13:51:48;2.70;;;1.55;;
65387;SDS011;51992;53.528;49.474;2022-10-31T13:56:50;10.82;;;2.42;;
65387;SDS011;51992;53.528;49.474;2022-10-31T13:59:17;18.30;;;3.53;;
65387;SDS011;51992;53.528;49.474;2022-10-31T14:01:49;12.30;;;3.28;;
65387;SDS011;51992;53.528;49.474;2022-10-31T14:04:17;6.35;;;3.35;;
65387;SDS011;51992;53.528;49.474;2022-10-31T14:12:41;12.82;;;4.70;;
65387;SDS011;51992;53.528;49.474;2022-10-31T14:15:15;12.57;;;4.68;;
65387;SDS011;51992;53.528;49.474;2022-10-31T14:17:48;12.30;;;5.10;;
65387;SDS011;51992;53.528;49.474;2022-10-31T14:22:41;16.10;;;4.90;;
65387;SDS011;51992;53.528;49.474;2022-10-31T14:25:30;11.57;;;4.32;;
65387;SDS011;51992;53.528;49.474;2022-10-31T14:27:56;10.50;;;3.70;;
65387;SDS011;51992;53.528;49.474;2022-10-31T14:30:23;9.98;;;3.58;;
65387;SDS011;51992;53.528;49.474;2022-10-31T14:32:50;9.80;;;3.45;;
65387;SDS011;51992;53.528;49.474;2022-10-31T14:35:17;5.97;;;2.95;;
65387;SDS011;51992;53.528;49.474;2022-10-31T14:50:32;2.85;;;2.40;;
65387;SDS011;51992;53.528;49.474;2022-10-31T14:53:01;4.40;;;2.38;;
65387;SDS011;51992;53.528;49.474;2022-10-31T14:55:28;6.95;;;2.65;;
65387;SDS011;51992;53.528;49.474;2022-10-31T14:57:58;3.80;;;2.50;;
65387;SDS011;51992;53.528;49.474;2022-10-31T15:00:25;9.70;;;2.30;;
65387;SDS011;51992;53.528;49.474;2022-10-31T15:05:20;3.67;;;2.55;;
65387;SDS011;51992;53.528;49.474;2022-10-31T15:07:53;9.20;;;2.20;;
65387;SDS011;51992;53.528;49.474;2022-10-31T15:10:20;6.68;;;2.65;;
65387;SDS011;51992;53.528;49.474;2022-10-31T15:12:46;4.82;;;2.83;;
65387;SDS011;51992;53.528;49.474;2022-10-31T15:17:41;2.33;;;1.83;;
65387;SDS011;51992;53.528;49.474;2022-10-31T15:20:11;4.05;;;2.40;;
65387;SDS011;51992;53.528;49.474;2022-10-31T15:22:37;10.23;;;3.50;;
65387;SDS011;51992;53.528;49.474;2022-10-31T15:25:03;9.85;;;2.95;;
65387;SDS011;51992;53.528;49.474;2022-10-31T15:27:30;8.60;;;2.88;;
65387;SDS011;51992;53.528;49.474;2022-10-31T15:29:56;10.95;;;3.28;;
65387;SDS011;51992;53.528;49.474;2022-10-31T15:32:26;10.52;;;3.08;;
65387;SDS011;51992;53.528;49.474;2022-10-31T15:34:52;4.57;;;2.10;;
65387;SDS011;51992;53.528;49.474;2022-10-31T15:37:19;5.25;;;2.65;;
65387;SDS011;51992;53.528;49.474;2022-10-31T15:39:46;2.63;;;1.80;;
65387;SDS011;51992;53.528;49.474;2022-10-31T15:45:33;8.02;;;2.88;;
65387;SDS011;51992;53.528;49.474;2022-10-31T15:47:33;4.60;;;2.72;;
65387;SDS011;51992;53.528;49.474;2022-10-31T15:50:00;4.80;;;2.80;;
65387;SDS011;51992;53.528;49.474;2022-10-31T15:52:28;5.00;;;2.20;;
65387;SDS011;51992;53.528;49.474;2022-10-31T15:55:38;4.32;;;2.20;;
65387;SDS011;51992;53.528;49.474;2022-10-31T15:57:51;3.70;;;2.40;;
65387;SDS011;51992;53.528;49.474;2022-10-31T16:00:35;6.15;;;2.72;;
65387;SDS011;51992;53.528;49.474;2022-10-31T16:05:43;7.22;;;2.53;;
65387;SDS011;51992;53.528;49.474;2022-10-31T16:08:23;6.17;;;2.60;;
65387;SDS011;51992;53.528;49.474;2022-10-31T16:10:49;5.00;;;2.35;;
65387;SDS011;51992;53.528;49.474;2022-10-31T16:13:15;5.55;;;3.13;;
65387;SDS011;51992;53.528;49.474;2022-10-31T16:15:48;7.10;;;2.75;;
65387;SDS011;51992;53.528;49.474;2022-10-31T16:18:14;5.88;;;2.72;;
65387;SDS011;51992;53.528;49.474;2022-10-31T16:20:40;5.90;;;3.03;;
65387;SDS011;51992;53.528;49.474;2022-10-31T16:23:13;8.27;;;3.38;;
65387;SDS011;51992;53.528;49.474;2022-10-31T16:25:41;7.75;;;3.38;;
65387;SDS011;51992;53.528;49.474;2022-10-31T16:28:14;9.10;;;3.08;;
65387;SDS011;51992;53.528;49.474;2022-10-31T16:30:42;5.97;;;2.70;;
65387;SDS011;51992;53.528;49.474;2022-10-31T16:33:28;11.02;;;3.72;;
65387;SDS011;51992;53.528;49.474;2022-10-31T16:35:55;16.67;;;4.28;;
65387;SDS011;51992;53.528;49.474;2022-10-31T16:38:21;26.27;;;5.00;;
65387;SDS011;51992;53.528;49.474;2022-10-31T16:40:46;24.70;;;5.18;;
65387;SDS011;51992;53.528;49.474;2022-10-31T16:43:13;15.30;;;4.18;;
65387;SDS011;51992;53.528;49.474;2022-10-31T16:45:42;9.20;;;3.50;;
65387;SDS011;51992;53.528;49.474;2022-10-31T16:48:10;16.77;;;4.35;;
65387;SDS011;51992;53.528;49.474;2022-10-31T16:50:37;20.02;;;3.92;;
65387;SDS011;51992;53.528;49.474;2022-10-31T16:53:02;20.88;;;4.22;;
65387;SDS011;51992;53.528;49.474;2022-10-31T16:55:28;19.15;;;3.88;;
65387;SDS011;51992;53.528;49.474;2022-10-31T16:57:55;16.70;;;4.50;;
65387;SDS011;51992;53.528;49.474;2022-10-31T17:00:22;13.88;;;5.70;;
65387;SDS011;51992;53.528;49.474;2022-10-31T17:02:48;22.10;;;5.85;;
65387;SDS011;51992;53.528;49.474;2022-10-31T17:05:16;26.75;;;5.47;;
65387;SDS011;51992;53.528;49.474;2022-10-31T17:07:42;31.25;;;5.18;;
65387;SDS011;51992;53.528;49.474;2022-10-31T17:10:08;19.13;;;4.30;;
65387;SDS011;51992;53.528;49.474;2022-10-31T17:12:34;7.13;;;2.97;;
65387;SDS011;51992;53.528;49.474;2022-10-31T17:15:00;11.93;;;3.47;;
65387;SDS011;51992;53.528;49.474;2022-10-31T17:17:26;4.85;;;2.63;;
65387;SDS011;51992;53.528;49.474;2022-10-31T17:19:52;6.93;;;2.78;;
65387;SDS011;51992;53.528;49.474;2022-10-31T17:22:18;5.70;;;2.28;;
65387;SDS011;51992;53.528;49.474;2022-10-31T17:24:44;11.25;;;2.50;;
65387;SDS011;51992;53.528;49.474;2022-10-31T17:27:09;10.20;;;2.75;;
65387;SDS011;51992;53.528;49.474;2022-10-31T17:29:35;3.65;;;2.05;;
65387;SDS011;51992;53.528;49.474;2022-10-31T17:32:01;8.05;;;2.40;;
65387;SDS011;51992;53.528;49.474;2022-10-31T17:34:28;6.30;;;2.20;;
65387;SDS011;51992;53.528;49.474;2022-10-31T17:36:54;9.50;;;2.50;;
65387;SDS011;51992;53.528;49.474;2022-10-31T17:39:20;10.75;;;3.45;;
65387;SDS011;51992;53.528;49.474;2022-10-31T17:41:49;6.93;;;3.20;;
65387;SDS011;51992;53.528;49.474;2022-10-31T17:44:16;16.27;;;3.47;;
65387;SDS011;51992;53.528;49.474;2022-10-31T17:46:41;10.93;;;3.60;;
65387;SDS011;51992;53.528;49.474;2022-10-31T17:49:09;9.65;;;3.53;;
65387;SDS011;51992;53.528;49.474;2022-10-31T17:51:35;20.77;;;4.53;;
65387;SDS011;51992;53.528;49.474;2022-10-31T17:54:01;13.98;;;3.97;;
65387;SDS011;51992;53.528;49.474;2022-10-31T17:56:27;7.82;;;3.30;;
65387;SDS011;51992;53.528;49.474;2022-10-31T17:58:53;10.13;;;3.22;;
65387;SDS011;51992;53.528;49.474;2022-10-31T18:01:19;8.07;;;3.33;;
65387;SDS011;51992;53.528;49.474;2022-10-31T18:03:45;5.75;;;2.67;;
65387;SDS011;51992;53.528;49.474;2022-10-31T18:06:11;5.32;;;2.20;;
65387;SDS011;51992;53.528;49.474;2022-10-31T18:08:39;4.75;;;2.70;;
65387;SDS011;51992;53.528;49.474;2022-10-31T18:11:09;4.78;;;2.75;;
65387;SDS011;51992;53.528;49.474;2022-10-31T18:13:35;10.25;;;3.22;;
65387;SDS011;51992;53.528;49.474;2022-10-31T18:16:01;19.17;;;11.23;;
65387;SDS011;51992;53.528;49.474;2022-10-31T18:18:30;21.27;;;13.70;;
65387;SDS011;51992;53.528;49.474;2022-10-31T18:20:56;11.85;;;7.70;;
65387;SDS011;51992;53.528;49.474;2022-10-31T18:23:22;7.20;;;4.38;;
65387;SDS011;51992;53.528;49.474;2022-10-31T18:25:48;4.43;;;3.03;;
65387;SDS011;51992;53.528;49.474;2022-10-31T18:28:14;5.03;;;2.65;;
65387;SDS011;51992;53.528;49.474;2022-10-31T18:30:40;7.55;;;3.85;;
65387;SDS011;51992;53.528;49.474;2022-10-31T18:33:06;7.75;;;5.50;;
65387;SDS011;51992;53.528;49.474;2022-10-31T18:35:34;4.97;;;3.53;;
65387;SDS011;51992;53.528;49.474;2022-10-31T18:37:59;5.85;;;2.33;;
65387;SDS011;51992;53.528;49.474;2022-10-31T18:40:25;3.47;;;1.50;;
65387;SDS011;51992;53.528;49.474;2022-10-31T18:42:51;6.15;;;3.22;;
65387;SDS011;51992;53.528;49.474;2022-10-31T18:45:17;4.78;;;2.58;;
65387;SDS011;51992;53.528;49.474;2022-10-31T18:47:42;6.22;;;5.05;;
65387;SDS011;51992;53.528;49.474;2022-10-31T18:50:08;5.47;;;2.90;;
65387;SDS011;51992;53.528;49.474;2022-10-31T18:52:34;6.10;;;1.92;;
65387;SDS011;51992;53.528;49.474;2022-10-31T18:55:00;1.00;;;0.70;;
65387;SDS011;51992;53.528;49.474;2022-10-31T18:57:26;1.45;;;0.90;;
65387;SDS011;51992;53.528;49.474;2022-10-31T18:59:52;0.55;;;0.55;;
65387;SDS011;51992;53.528;49.474;2022-10-31T19:02:18;2.50;;;0.98;;
65387;SDS011;51992;53.528;49.474;2022-10-31T19:04:43;4.65;;;2.20;;
65387;SDS011;51992;53.528;49.474;2022-10-31T19:07:09;5.32;;;2.25;;
65387;SDS011;51992;53.528;49.474;2022-10-31T19:09:35;3.78;;;1.95;;
65387;SDS011;51992;53.528;49.474;2022-10-31T19:12:01;7.63;;;2.80;;
65387;SDS011;51992;53.528;49.474;2022-10-31T19:14:26;5.32;;;2.70;;
65387;SDS011;51992;53.528;49.474;2022-10-31T19:16:52;4.05;;;2.08;;
65387;SDS011;51992;53.528;49.474;2022-10-31T19:19:18;5.38;;;2.83;;
65387;SDS011;51992;53.528;49.474;2022-10-31T19:21:46;4.28;;;2.70;;
65387;SDS011;51992;53.528;49.474;2022-10-31T19:24:12;4.47;;;3.22;;
65387;SDS011;51992;53.528;49.474;2022-10-31T19:26:38;4.90;;;3.05;;
65387;SDS011;51992;53.528;49.474;2022-10-31T19:29:04;4.22;;;2.58;;
65387;SDS011;51992;53.528;49.474;2022-10-31T19:31:29;5.43;;;2.00;;
65387;SDS011;51992;53.528;49.474;2022-10-31T19:33:55;2.75;;;1.70;;
65387;SDS011;51992;53.528;49.474;2022-10-31T19:36:21;3.40;;;1.90;;
65387;SDS011;51992;53.528;49.474;2022-10-31T19:38:49;1.23;;;1.13;;
65387;SDS011;51992;53.528;49.474;2022-10-31T19:43:40;1.63;;;1.23;;
65387;SDS011;51992;53.528;49.474;2022-10-31T19:46:07;1.35;;;1.10;;
65387;SDS011;51992;53.528;49.474;2022-10-31T19:48:36;3.92;;;1.70;;
65387;SDS011;51992;53.528;49.474;2022-10-31T19:51:04;1.15;;;1.05;;
65387;SDS011;51992;53.528;49.474;2022-10-31T19:53:30;1.40;;;1.10;;
65387;SDS011;51992;53.528;49.474;2022-10-31T19:55:56;1.13;;;1.02;;
65387;SDS011;51992;53.528;49.474;2022-10-31T19:58:23;4.50;;;1.50;;
65387;SDS011;51992;53.528;49.474;2022-10-31T20:00:48;4.18;;;1.15;;
65387;SDS011;51992;53.528;49.474;2022-10-31T20:03:14;1.08;;;0.88;;
65387;SDS011;51992;53.528;49.474;2022-10-31T20:05:40;1.63;;;1.00;;
65387;SDS011;51992;53.528;49.474;2022-10-31T20:08:08;1.30;;;0.90;;
65387;SDS011;51992;53.528;49.474;2022-10-31T20:10:34;3.80;;;1.40;;
65387;SDS011;51992;53.528;49.474;2022-10-31T20:12:59;1.77;;;1.17;;
65387;SDS011;51992;53.528;49.474;2022-10-31T20:15:25;3.03;;;1.30;;
65387;SDS011;51992;53.528;49.474;2022-10-31T20:17:51;1.02;;;0.93;;
65387;SDS011;51992;53.528;49.474;2022-10-31T20:20:17;5.15;;;1.38;;
65387;SDS011;51992;53.528;49.474;2022-10-31T20:22:42;2.47;;;1.55;;
65387;SDS011;51992;53.528;49.474;2022-10-31T20:25:11;2.22;;;1.75;;
65387;SDS011;51992;53.528;49.474;2022-10-31T20:27:37;2.50;;;1.73;;
65387;SDS011;51992;53.528;49.474;2022-10-31T20:30:03;4.38;;;2.00;;
65387;SDS011;51992;53.528;49.474;2022-10-31T20:32:29;5.05;;;2.38;;
65387;SDS011;51992;53.528;49.474;2022-10-31T20:34:54;7.65;;;2.50;;
65387;SDS011;51992;53.528;49.474;2022-10-31T20:37:20;4.75;;;2.30;;
65387;SDS011;51992;53.528;49.474;2022-10-31T20:39:46;5.40;;;2.50;;
65387;SDS011;51992;53.528;49.474;2022-10-31T20:42:12;3.33;;;2.58;;
65387;SDS011;51992;53.528;49.474;2022-10-31T20:44:37;5.22;;;2.28;;
65387;SDS011;51992;53.528;49.474;2022-10-31T20:47:03;2.67;;;1.90;;
65387;SDS011;51992;53.528;49.474;2022-10-31T20:49:31;5.57;;;2.13;;
65387;SDS011;51992;53.528;49.474;2022-10-31T20:51:56;6.32;;;2.42;;
65387;SDS011;51992;53.528;49.474;2022-10-31T20:54:22;3.05;;;2.10;;
65387;SDS011;51992;53.528;49.474;2022-10-31T20:56:48;4.60;;;2.25;;
65387;SDS011;51992;53.528;49.474;2022-10-31T20:59:14;5.85;;;2.75;;
65387;SDS011;51992;53.528;49.474;2022-10-31T21:01:42;3.85;;;1.80;;
65387;SDS011;51992;53.528;49.474;2022-10-31T21:04:08;3.78;;;2.17;;
65387;SDS011;51992;53.528;49.474;2022-10-31T21:06:36;2.63;;;1.80;;
65387;SDS011;51992;53.528;49.474;2022-10-31T21:09:02;2.15;;;1.52;;
65387;SDS011;51992;53.528;49.474;2022-10-31T21:11:28;2.47;;;1.77;;
65387;SDS011;51992;53.528;49.474;2022-10-31T21:13:54;4.85;;;1.77;;
65387;SDS011;51992;53.528;49.474;2022-10-31T21:16:24;2.53;;;1.60;;
65387;SDS011;51992;53.528;49.474;2022-10-31T21:18:51;2.13;;;1.70;;
65387;SDS011;51992;53.528;49.474;2022-10-31T21:21:19;4.05;;;1.65;;
65387;SDS011;51992;53.528;49.474;2022-10-31T21:23:45;3.92;;;2.08;;
65387;SDS011;51992;53.528;49.474;2022-10-31T21:26:15;6.88;;;3.00;;
65387;SDS011;51992;53.528;49.474;2022-10-31T21:28:41;3.08;;;2.35;;
65387;SDS011;51992;53.528;49.474;2022-10-31T21:31:09;5.28;;;3.20;;
65387;SDS011;51992;53.528;49.474;2022-10-31T21:33:35;6.35;;;3.53;;
65387;SDS011;51992;53.528;49.474;2022-10-31T21:36:02;6.85;;;3.95;;
65387;SDS011;51992;53.528;49.474;2022-10-31T21:38:27;17.48;;;9.70;;
65387;SDS011;51992;53.528;49.474;2022-10-31T21:40:57;14.05;;;8.48;;
65387;SDS011;51992;53.528;49.474;2022-10-31T21:43:24;34.28;;;11.60;;
65387;SDS011;51992;53.528;49.474;2022-10-31T21:45:49;33.55;;;14.25;;
65387;SDS011;51992;53.528;49.474;2022-10-31T21:48:15;24.52;;;13.20;;
65387;SDS011;51992;53.528;49.474;2022-10-31T21:50:41;25.10;;;13.05;;
65387;SDS011;51992;53.528;49.474;2022-10-31T21:53:07;25.13;;;13.55;;
65387;SDS011;51992;53.528;49.474;2022-10-31T21:55:51;24.15;;;13.05;;
65387;SDS011;51992;53.528;49.474;2022-10-31T21:58:17;24.75;;;13.70;;
65387;SDS011;51992;53.528;49.474;2022-10-31T22:00:43;20.00;;;10.93;;
65387;SDS011;51992;53.528;49.474;2022-10-31T22:03:08;13.40;;;7.65;;
65387;SDS011;51992;53.528;49.474;2022-10-31T22:05:34;17.58;;;8.15;;
65387;SDS011;51992;53.528;49.474;2022-10-31T22:08:00;14.32;;;7.60;;
65387;SDS011;51992;53.528;49.474;2022-10-31T22:10:26;17.17;;;7.00;;
65387;SDS011;51992;53.528;49.474;2022-10-31T22:12:51;18.98;;;6.75;;
65387;SDS011;51992;53.528;49.474;2022-10-31T22:15:17;13.52;;;6.65;;
65387;SDS011;51992;53.528;49.474;2022-10-31T22:17:47;9.90;;;4.97;;
65387;SDS011;51992;53.528;49.474;2022-10-31T22:20:13;11.43;;;5.30;;
65387;SDS011;51992;53.528;49.474;2022-10-31T22:22:39;8.30;;;4.22;;
65387;SDS011;51992;53.528;49.474;2022-10-31T22:25:05;8.27;;;3.97;;
65387;SDS011;51992;53.528;49.474;2022-10-31T22:27:31;13.32;;;7.68;;
65387;SDS011;51992;53.528;49.474;2022-10-31T22:29:56;28.42;;;13.60;;